Time;durP1;ratioP1;P1;durP2;ratioP2;P2;SDS_P1;SDS_P2;PMS_P1;PMS_P2;Temp;Humidity;BMP_temperature;BMP_pressure;BME280_temperature;BME280_humidity;BME280_pressure;Samples;Min_cycle;Max_cycle;Signal;HPM_P1;HPM_P2
2023/04/19 00:00:34;;;;;;;30.25;15.02;;;;;;;8.28;100.00;102696.91;5063513;28;20070;-79
2023/04/19 00:03:00;;;;;;;33.42;14.77;;;;;;;8.28;100.00;102692.41;5073308;28;20549;-80
2023/04/19 00:05:27;;;;;;;28.92;14.13;;;;;;;8.24;100.00;102685.59;5059939;28;20047;-79
2023/04/19 00:07:52;;;;;;;39.45;15.75;;;;;;;8.21;100.00;102683.13;5069389;28;20024;-78
2023/04/19 00:10:17;;;;;;;27.40;13.48;;;;;;;8.16;100.00;102692.50;5080151;28;20033;-80
2023/04/19 00:12:43;;;;;;;30.10;14.13;;;;;;;8.12;100.00;102689.22;5082418;28;20123;-80
2023/04/19 00:15:08;;;;;;;27.17;13.55;;;;;;;8.10;100.00;102686.66;5063269;28;20020;-81
2023/04/19 00:17:34;;;;;;;26.83;13.65;;;;;;;8.07;100.00;102689.59;5071723;28;20056;-78
2023/04/19 00:19:59;;;;;;;27.45;14.63;;;;;;;8.04;100.00;102695.19;5071200;28;20405;-78
2023/04/19 00:22:25;;;;;;;30.23;14.15;;;;;;;8.01;100.00;102689.22;5076377;28;20400;-78
2023/04/19 00:24:51;;;;;;;27.60;14.02;;;;;;;7.98;100.00;102690.31;5077714;28;20044;-79
2023/04/19 00:27:16;;;;;;;28.77;13.65;;;;;;;7.96;100.00;102689.56;5077170;28;20025;-78
2023/04/19 00:29:41;;;;;;;26.33;13.70;;;;;;;7.93;100.00;102688.97;5077659;28;20040;-78
2023/04/19 00:32:07;;;;;;;29.55;14.68;;;;;;;7.91;100.00;102695.28;5082432;28;20495;-78
2023/04/19 00:34:33;;;;;;;30.50;14.30;;;;;;;7.90;100.00;102695.44;5067060;28;20429;-78
2023/04/19 00:36:58;;;;;;;32.70;14.98;;;;;;;7.86;100.00;102697.47;5072011;28;20118;-79
2023/04/19 00:39:24;;;;;;;29.90;15.07;;;;;;;7.83;100.00;102686.16;5092870;28;20483;-79
2023/04/19 00:41:49;;;;;;;28.25;15.68;;;;;;;7.83;100.00;102686.16;5081096;28;20041;-80
2023/04/19 00:44:14;;;;;;;25.20;14.02;;;;;;;7.81;100.00;102688.94;5094702;28;20539;-79
2023/04/19 00:46:41;;;;;;;30.05;14.85;;;;;;;7.82;100.00;102684.41;5077603;28;20472;-80
2023/04/19 00:49:06;;;;;;;31.13;15.35;;;;;;;7.78;100.00;102680.28;5069442;28;20119;-81
2023/04/19 00:51:32;;;;;;;34.08;15.18;;;;;;;7.75;100.00;102677.84;5078780;28;20185;-81
2023/04/19 00:53:57;;;;;;;29.15;14.25;;;;;;;7.75;100.00;102675.16;5085592;28;20031;-81
2023/04/19 00:56:24;;;;;;;28.05;14.02;;;;;;;7.72;100.00;102683.44;5085163;28;20037;-81
2023/04/19 00:58:49;;;;;;;29.73;14.10;;;;;;;7.73;100.00;102674.41;5076018;28;20108;-81
2023/04/19 01:01:14;;;;;;;32.40;14.85;;;;;;;7.80;100.00;102681.03;5076231;28;20060;-81
2023/04/19 01:03:40;;;;;;;29.17;14.48;;;;;;;7.80;100.00;102678.34;5078982;28;20033;-81
2023/04/19 01:06:05;;;;;;;35.67;15.48;;;;;;;7.81;100.00;102678.22;5066907;28;20075;-81
2023/04/19 01:08:31;;;;;;;39.80;14.95;;;;;;;7.80;100.00;102676.50;5079799;28;20017;-82
2023/04/19 01:10:56;;;;;;;29.13;15.50;;;;;;;7.77;100.00;102670.53;5068361;28;20033;-79
2023/04/19 01:13:22;;;;;;;30.90;14.68;;;;;;;7.77;100.00;102673.22;5075787;28;20084;-80
2023/04/19 01:15:47;;;;;;;34.50;14.15;;;;;;;7.74;100.00;102681.47;5078595;28;20035;-80
2023/04/19 01:18:12;;;;;;;28.67;14.55;;;;;;;7.70;100.00;102670.16;5077173;28;20028;-81
2023/04/19 01:20:38;;;;;;;30.50;15.07;;;;;;;7.67;100.00;102667.72;5074388;28;20025;-80
2023/04/19 01:23:03;;;;;;;32.70;14.77;;;;;;;7.62;100.00;102665.38;5074117;28;20029;-78
2023/04/19 01:25:29;;;;;;;36.03;14.68;;;;;;;7.64;100.00;102665.28;5088958;28;20383;-79
2023/04/19 01:27:54;;;;;;;35.05;16.30;;;;;;;7.61;100.00;102663.69;5094465;28;20090;-79
2023/04/19 01:30:20;;;;;;;31.58;15.13;;;;;;;7.63;100.00;102671.59;5078479;28;20059;-79
2023/04/19 01:32:45;;;;;;;33.20;15.55;;;;;;;7.61;100.00;102663.69;5077221;28;20464;-78
2023/04/19 01:35:11;;;;;;;32.58;15.45;;;;;;;7.57;100.00;102670.22;5091142;28;20024;-76
2023/04/19 01:37:36;;;;;;;30.42;14.45;;;;;;;7.56;100.00;102671.22;5080659;28;20028;-79
2023/04/19 01:40:05;;;;;;;31.45;14.98;;;;;;;7.55;100.00;102672.16;5077605;28;20025;-79
2023/04/19 01:42:30;;;;;;;31.70;15.50;;;;;;;7.49;100.00;102659.25;5078164;28;20056;-79
2023/04/19 01:44:55;;;;;;;44.90;15.82;;;;;;;7.48;100.00;102665.59;5069677;28;20028;-79
2023/04/19 01:47:22;;;;;;;31.65;15.73;;;;;;;7.44;100.00;102673.00;5086420;28;20159;-79
2023/04/19 01:49:47;;;;;;;32.42;15.23;;;;;;;7.39;100.00;102671.63;5069593;28;20021;-80
2023/04/19 01:52:13;;;;;;;36.95;15.45;;;;;;;7.37;100.00;102663.72;5070815;28;20140;-78
2023/04/19 01:54:38;;;;;;;33.80;16.13;;;;;;;7.31;100.00;102669.53;5077677;28;20076;-79
2023/04/19 01:57:04;;;;;;;34.67;16.08;;;;;;;7.34;100.00;102660.41;5077570;28;20059;-80
2023/04/19 01:59:29;;;;;;;34.35;16.08;;;;;;;7.36;100.00;102663.84;5078669;28;20033;-79
2023/04/19 02:01:54;;;;;;;34.53;15.75;;;;;;;7.36;100.00;102669.19;5094147;28;20024;-79
2023/04/19 02:04:20;;;;;;;39.33;16.45;;;;;;;7.34;100.00;102663.09;5090609;28;20025;-79
2023/04/19 02:06:46;;;;;;;36.88;16.92;;;;;;;7.34;100.00;102663.09;5073535;28;20032;-80
2023/04/19 02:09:11;;;;;;;38.47;18.00;;;;;;;7.33;100.00;102661.41;5072261;28;20043;-81
2023/04/19 02:11:37;;;;;;;46.42;18.67;;;;;;;7.33;100.00;102656.88;5077514;28;20044;-81
2023/04/19 02:14:03;;;;;;;40.28;17.25;;;;;;;7.33;100.00;102662.25;5076745;28;20045;-82
2023/04/19 02:16:28;;;;;;;44.72;17.70;;;;;;;7.36;100.00;102661.16;5057118;28;20075;-81
2023/04/19 02:18:53;;;;;;;40.70;18.10;;;;;;;7.36;100.00;102658.47;5056143;28;20044;-81
2023/04/19 02:21:19;;;;;;;38.22;18.58;;;;;;;7.36;100.00;102656.66;5069981;28;20135;-81
2023/04/19 02:23:44;;;;;;;47.00;18.58;;;;;;;7.37;100.00;102665.53;5076953;28;20024;-81
2023/04/19 02:26:11;;;;;;;41.28;17.88;;;;;;;7.40;100.00;102658.13;5077454;28;20070;-81
2023/04/19 02:28:38;;;;;;;45.25;18.02;;;;;;;7.44;100.00;102659.59;5078060;28;20016;-79
2023/04/19 02:31:04;;;;;;;38.05;18.90;;;;;;;7.46;100.00;102664.84;5079724;28;20085;-79
2023/04/19 02:33:30;;;;;;;43.53;19.57;;;;;;;7.45;100.00;102660.44;5081443;28;20033;-81
2023/04/19 02:35:56;;;;;;;41.00;19.52;;;;;;;7.49;100.00;102664.63;5075743;28;20108;-80
2023/04/19 02:38:21;;;;;;;39.92;18.42;;;;;;;7.50;100.00;102665.47;5060932;28;20029;-80
2023/04/19 02:40:47;;;;;;;44.90;19.58;;;;;;;7.53;100.00;102674.13;5062892;28;20029;-80
2023/04/19 02:43:12;;;;;;;40.35;18.73;;;;;;;7.60;100.00;102666.47;5074136;28;20028;-81
2023/04/19 02:45:37;;;;;;;48.63;19.75;;;;;;;7.61;100.00;102666.38;5079549;28;20538;-82
2023/04/19 02:48:03;;;;;;;46.13;19.30;;;;;;;7.62;100.00;102667.22;5075382;28;20422;-81
2023/04/19 02:50:28;;;;;;;42.33;19.90;;;;;;;7.65;100.00;102667.81;5079045;28;20055;-81
2023/04/19 02:52:54;;;;;;;45.08;20.35;;;;;;;7.67;100.00;102665.03;5065497;28;20056;-78
2023/04/19 02:55:19;;;;;;;46.05;20.90;;;;;;;7.69;100.00;102671.97;5068987;28;20053;-80
2023/04/19 02:57:45;;;;;;;49.58;21.70;;;;;;;7.73;100.00;102666.38;5085351;28;20032;-79
2023/04/19 03:00:12;;;;;;;45.38;20.80;;;;;;;7.77;100.00;102667.88;5090613;28;20033;-80
2023/04/19 03:02:38;;;;;;;43.97;20.67;;;;;;;7.78;100.00;102669.56;5081296;28;20025;-78
2023/04/19 03:05:05;;;;;;;49.03;20.30;;;;;;;7.85;100.00;102670.81;5080210;28;20024;-78
2023/04/19 03:07:30;;;;;;;43.50;20.50;;;;;;;7.87;100.00;102672.38;5078388;28;20029;-80
2023/04/19 03:09:56;;;;;;;46.53;22.10;;;;;;;7.93;100.00;102664.84;5080096;28;20104;-79
2023/04/19 03:12:21;;;;;;;46.15;20.73;;;;;;;7.95;100.00;102668.22;5080034;28;20032;-79
2023/04/19 03:14:48;;;;;;;42.47;20.33;;;;;;;7.99;100.00;102669.72;5081918;28;20029;-78
2023/04/19 03:17:13;;;;;;;48.80;20.75;;;;;;;8.03;100.00;102671.16;5079468;28;20033;-79
2023/04/19 03:19:38;;;;;;;43.50;20.77;;;;;;;8.10;100.00;102664.34;5080035;28;20059;-79
2023/04/19 03:22:04;;;;;;;48.05;21.45;;;;;;;8.10;100.00;102661.69;5079036;28;20040;-78
2023/04/19 03:24:29;;;;;;;46.80;21.40;;;;;;;8.14;100.00;102661.31;5069870;28;20138;-79
2023/04/19 03:26:55;;;;;;;44.67;20.75;;;;;;;8.18;100.00;102661.91;5081824;28;20024;-78
2023/04/19 03:29:21;;;;;;;43.38;19.25;;;;;;;8.22;100.00;102657.19;5080376;28;20056;-78
2023/04/19 03:31:46;;;;;;;47.47;21.70;;;;;;;8.24;100.00;102668.63;5082421;28;20028;-79
2023/04/19 03:34:12;;;;;;;50.78;21.02;;;;;;;8.27;100.00;102655.00;5084145;28;20029;-78
2023/04/19 03:36:38;;;;;;;52.85;21.95;;;;;;;8.27;100.00;102655.00;5074776;28;20035;-78
2023/04/19 03:39:04;;;;;;;48.75;21.75;;;;;;;8.29;100.00;102659.25;5078837;28;20043;-80
2023/04/19 03:41:29;;;;;;;52.10;22.15;;;;;;;8.30;100.00;102654.75;5059794;28;20052;-79
2023/04/19 03:43:54;;;;;;;53.40;20.08;;;;;;;8.32;100.00;102660.81;5084041;28;20043;-78
2023/04/19 03:46:20;;;;;;;47.40;20.75;;;;;;;8.36;100.00;102656.91;5064276;28;20040;-78
2023/04/19 03:48:46;;;;;;;51.53;21.45;;;;;;;8.38;100.00;102659.50;5073655;28;20510;-78
2023/04/19 03:51:12;;;;;;;55.42;20.08;;;;;;;8.41;100.00;102660.13;5078621;28;20032;-79
2023/04/19 03:53:38;;;;;;;45.72;20.70;;;;;;;8.40;100.00;102663.78;5078957;28;20028;-79
2023/04/19 03:56:03;;;;;;;45.28;19.15;;;;;;;8.42;100.00;102667.19;5066047;28;20024;-79
2023/04/19 03:58:29;;;;;;;50.45;21.38;;;;;;;8.45;100.00;102656.22;5067025;28;20098;-81
2023/04/19 04:00:54;;;;;;;49.55;22.17;;;;;;;8.47;100.00;102654.25;5066903;28;20028;-80
2023/04/19 04:03:20;;;;;;;46.85;20.48;;;;;;;8.48;100.00;102660.50;5074478;28;20025;-80
2023/04/19 04:05:45;;;;;;;50.78;22.60;;;;;;;8.51;100.00;102647.69;5081515;28;20107;-79
2023/04/19 04:08:10;;;;;;;50.97;21.75;;;;;;;8.55;100.00;102657.16;5081924;28;20059;-80
2023/04/19 04:10:36;;;;;;;58.60;22.10;;;;;;;8.55;100.00;102661.69;5065027;28;20041;-81
2023/04/19 04:13:01;;;;;;;54.40;21.23;;;;;;;8.55;100.00;102657.16;5060255;28;20040;-82
2023/04/19 04:15:26;;;;;;;52.63;21.35;;;;;;;8.54;100.00;102660.84;5061627;28;20025;-80
2023/04/19 04:17:52;;;;;;;51.85;21.30;;;;;;;8.60;100.00;102650.59;5077273;28;20051;-81
2023/04/19 04:20:17;;;;;;;49.63;20.85;;;;;;;8.60;100.00;102664.84;5079259;28;20476;-80
2023/04/19 04:22:47;;;;;;;51.38;21.20;;;;;;;8.62;100.00;102662.06;5084448;28;20024;-79
2023/04/19 04:25:15;;;;;;;51.50;20.15;;;;;;;8.62;100.00;102662.06;5073479;28;20020;-78
2023/04/19 04:27:42;;;;;;;52.53;22.45;;;;;;;8.63;100.00;102664.59;5077473;28;20040;-80
2023/04/19 04:30:08;;;;;;;55.77;21.57;;;;;;;8.63;100.00;102669.97;5082243;28;20032;-80
2023/04/19 04:32:34;;;;;;;47.03;20.35;;;;;;;8.63;100.00;102672.66;5076891;28;20306;-80
2023/04/19 04:35:01;;;;;;;49.35;20.20;;;;;;;8.65;100.00;102668.03;5070671;28;20032;-79
2023/04/19 04:37:26;;;;;;;55.17;22.08;;;;;;;8.68;100.00;102670.44;5076666;28;20017;-80
2023/04/19 04:39:51;;;;;;;53.20;20.77;;;;;;;8.70;100.00;102673.03;5077620;28;20088;-80
2023/04/19 04:42:20;;;;;;;42.70;19.98;;;;;;;8.71;100.00;102669.34;5077665;28;20025;-80
2023/04/19 04:44:46;;;;;;;51.33;20.33;;;;;;;8.74;100.00;102674.47;5082679;28;20028;-80
2023/04/19 04:47:12;;;;;;;44.28;20.13;;;;;;;8.76;100.00;102669.81;5078810;28;20032;-79
2023/04/19 04:49:38;;;;;;;50.10;19.75;;;;;;;8.73;100.00;102667.41;5076521;28;20198;-78
2023/04/19 04:52:03;;;;;;;46.75;20.92;;;;;;;8.76;100.00;102673.34;5075462;28;20103;-79
2023/04/19 04:54:28;;;;;;;46.00;19.95;;;;;;;8.75;100.00;102670.81;5070332;28;20082;-79
2023/04/19 04:56:54;;;;;;;47.28;19.38;;;;;;;8.81;100.00;102677.50;5084943;28;20039;-79
2023/04/19 04:59:19;;;;;;;47.85;19.80;;;;;;;8.79;100.00;102680.31;5081479;28;20029;-79
2023/04/19 05:01:45;;;;;;;49.55;19.77;;;;;;;8.80;100.00;102679.34;5079664;28;20056;-79
2023/04/19 05:04:10;;;;;;;46.60;19.27;;;;;;;8.87;100.00;102677.84;5079078;28;20029;-80
2023/04/19 05:06:35;;;;;;;45.17;19.42;;;;;;;8.87;100.00;102683.22;5077241;28;20040;-79
2023/04/19 05:09:01;;;;;;;39.63;18.33;;;;;;;8.92;100.00;102680.16;5079642;28;20103;-79
2023/04/19 05:11:26;;;;;;;46.03;19.50;;;;;;;8.87;100.00;102688.59;5077146;28;20031;-80
2023/04/19 05:13:51;;;;;;;45.88;19.20;;;;;;;8.82;100.00;102682.78;5079089;28;20032;-80
2023/04/19 05:16:17;;;;;;;48.40;19.90;;;;;;;8.93;100.00;102687.25;5058978;28;20533;-80
2023/04/19 05:18:42;;;;;;;51.88;20.08;;;;;;;8.95;100.00;102678.09;5068224;28;20086;-81
2023/04/19 05:21:09;;;;;;;51.95;20.25;;;;;;;9.00;100.00;102683.94;5058719;28;20061;-80
2023/04/19 05:23:35;;;;;;;43.25;18.73;;;;;;;9.11;100.00;102682.19;5078235;28;20048;-81
2023/04/19 05:26:01;;;;;;;41.75;17.83;;;;;;;9.17;100.00;102679.00;5073062;28;20091;-80
2023/04/19 05:28:26;;;;;;;46.20;19.20;;;;;;;9.24;100.00;102685.53;5064800;28;20033;-80
2023/04/19 05:30:51;;;;;;;46.90;18.77;;;;;;;9.27;100.00;102685.31;5061808;28;20041;-80
2023/04/19 05:33:17;;;;;;;39.58;17.27;;;;;;;9.29;100.00;102683.34;5081173;28;20025;-80
2023/04/19 05:35:42;;;;;;;51.28;18.45;;;;;;;9.38;100.00;102682.56;5086784;28;20043;-79
2023/04/19 05:38:07;;;;;;;40.65;18.27;;;;;;;9.53;100.00;102690.31;5084245;28;20032;-82
2023/04/19 05:40:34;;;;;;;38.90;16.83;;;;;;;9.74;100.00;102684.94;5081150;28;20040;-81
2023/04/19 05:42:59;;;;;;;36.67;16.08;;;;;;;10.01;100.00;102684.44;5082741;28;20047;-79
2023/04/19 05:45:25;;;;;;;37.25;17.15;;;;;;;10.41;100.00;102678.28;5076814;28;20032;-80
2023/04/19 05:47:50;;;;;;;35.25;16.17;;;;;;;10.68;100.00;102673.09;5082004;28;20135;-80
2023/04/19 05:50:19;;;;;;;33.05;16.08;;;;;;;10.46;100.00;102684.09;5072762;28;20024;-80
2023/04/19 05:52:45;;;;;;;39.97;15.90;;;;;;;10.00;100.00;102688.09;5079256;28;20048;-81
2023/04/19 05:55:10;;;;;;;36.72;16.98;;;;;;;9.84;100.00;102675.94;5078104;28;20094;-81
2023/04/19 05:57:35;;;;;;;38.05;16.13;;;;;;;10.33;100.00;102674.41;5080912;28;20041;-80
2023/04/19 06:00:01;;;;;;;36.08;15.30;;;;;;;10.95;100.00;102677.84;5083155;28;20032;-81
2023/04/19 06:02:26;;;;;;;33.05;14.48;;;;;;;11.37;100.00;102671.34;5069606;28;20032;-81
2023/04/19 06:04:52;;;;;;;38.30;15.45;;;;;;;11.61;100.00;102677.16;5082991;28;20099;-79
2023/04/19 06:07:17;;;;;;;36.03;15.35;;;;;;;11.91;100.00;102683.38;5082725;28;20092;-80
2023/04/19 06:09:43;;;;;;;29.13;15.35;;;;;;;12.26;100.00;102679.13;5082900;28;20040;-80
2023/04/19 06:12:08;;;;;;;28.63;14.88;;;;;;;12.52;100.00;102682.00;5101851;28;20032;-81
2023/04/19 06:14:34;;;;;;;38.05;15.80;;;;;;;12.78;100.00;102676.75;5102693;28;20028;-79
2023/04/19 06:16:59;;;;;;;33.88;16.20;;;;;;;13.19;100.00;102685.28;5090923;28;20054;-83
2023/04/19 06:19:24;;;;;;;35.33;15.10;;;;;;;13.15;100.00;102683.91;5084851;28;20043;-79
2023/04/19 06:21:50;;;;;;;32.67;14.40;;;;;;;13.27;100.00;102682.72;5082796;28;20054;-81
2023/04/19 06:24:15;;;;;;;34.33;14.70;;;;;;;13.24;100.00;102682.97;5083134;28;20029;-82
2023/04/19 06:26:40;;;;;;;29.13;14.93;;;;;;;13.24;100.00;102680.25;5077232;28;20020;-80
2023/04/19 06:29:06;;;;;;;30.77;15.23;;;;;;;13.33;100.00;102682.06;5062634;28;20028;-82
2023/04/19 06:31:32;;;;;;;47.83;15.00;;;;;;;13.54;100.00;102689.03;5062354;28;20029;-79
2023/04/19 06:33:57;;;;;;;29.42;13.45;;;;;;;13.62;100.00;102691.78;5067244;28;20029;-80
2023/04/19 06:36:23;;;;;;;28.92;14.20;;;;;;;13.94;100.00;102690.34;5075144;28;20094;-79
2023/04/19 06:38:49;;;;;;;27.77;13.30;;;;;;;14.47;99.18;102681.13;5079598;28;20024;-79
2023/04/19 06:41:14;;;;;;;24.95;13.25;;;;;;;14.45;94.36;102683.16;5078386;28;20510;-80
2023/04/19 06:43:41;;;;;;;28.10;13.25;;;;;;;14.09;96.16;102677.06;5077890;28;20031;-80
2023/04/19 06:46:07;;;;;;;25.20;12.07;;;;;;;14.14;94.02;102693.66;5081370;28;20074;-81
2023/04/19 06:48:33;;;;;;;31.60;13.98;;;;;;;14.07;93.95;102693.47;5078735;28;20283;-82
2023/04/19 06:50:59;;;;;;;23.48;12.23;;;;;;;13.81;93.47;102680.75;5079914;28;20032;-79
2023/04/19 06:53:25;;;;;;;23.25;12.38;;;;;;;13.80;93.62;102687.19;5079633;28;20068;-79
2023/04/19 06:56:00;;;;;;;21.30;12.10;;;;;;;13.94;92.96;102693.03;5082431;28;20099;-81
2023/04/19 06:58:26;;;;;;;28.75;13.20;;;;;;;14.28;92.38;102688.50;5074802;28;20040;-79
2023/04/19 07:00:52;;;;;;;34.08;12.82;;;;;;;14.40;90.75;102690.91;5082459;28;20035;-79
2023/04/19 07:03:18;;;;;;;23.98;12.18;;;;;;;14.82;90.31;102690.09;5072701;28;20017;-79
2023/04/19 07:05:43;;;;;;;20.70;11.50;;;;;;;15.43;85.29;102691.59;5069639;28;20029;-79
2023/04/19 07:08:08;;;;;;;25.02;12.40;;;;;;;15.77;84.06;102690.56;5078026;28;20025;-79
2023/04/19 07:10:34;;;;;;;21.58;11.95;;;;;;;15.90;81.03;102687.31;5080692;28;20028;-84
2023/04/19 07:12:59;;;;;;;21.35;11.45;;;;;;;15.80;79.62;102679.38;5081225;28;20033;-80
2023/04/19 07:15:24;;;;;;;22.67;11.45;;;;;;;15.86;78.22;102684.13;5080550;28;20029;-80
2023/04/19 07:17:50;;;;;;;23.67;11.30;;;;;;;16.03;76.13;102684.91;5080335;28;20024;-81
2023/04/19 07:20:15;;;;;;;22.85;11.00;;;;;;;15.82;74.56;102679.19;5079494;28;20036;-82
2023/04/19 07:22:40;;;;;;;21.85;10.30;;;;;;;15.96;73.95;102684.78;5079184;28;20375;-79
2023/04/19 07:25:07;;;;;;;21.30;11.40;;;;;;;16.22;72.17;102681.00;5079655;28;20033;-79
2023/04/19 07:27:32;;;;;;;21.92;10.65;;;;;;;16.41;72.29;102679.72;5079689;28;20028;-80
2023/04/19 07:29:58;;;;;;;20.92;11.25;;;;;;;16.75;70.85;102679.41;5070127;28;20051;-79
2023/04/19 07:32:24;;;;;;;19.00;10.52;;;;;;;16.88;69.29;102685.13;5065666;28;20029;-80
2023/04/19 07:34:50;;;;;;;20.75;11.15;;;;;;;16.93;69.03;102681.03;5078724;28;20425;-80
2023/04/19 07:37:16;;;;;;;20.63;10.60;;;;;;;17.25;70.36;102685.44;5080366;28;20084;-82
2023/04/19 07:39:41;;;;;;;21.10;10.48;;;;;;;18.02;66.94;102676.25;5068966;28;20027;-80
2023/04/19 07:42:06;;;;;;;22.13;11.27;;;;;;;18.22;63.61;102666.50;5078981;28;20016;-80
2023/04/19 07:44:32;;;;;;;17.20;9.80;;;;;;;17.77;64.35;102669.16;5079850;28;20025;-82
2023/04/19 07:46:57;;;;;;;16.60;10.30;;;;;;;18.07;64.05;102668.38;5069329;28;20032;-79
2023/04/19 07:49:22;;;;;;;17.98;9.95;;;;;;;18.54;60.30;102667.97;5067941;28;20071;-79
2023/04/19 07:51:48;;;;;;;16.48;9.93;;;;;;;18.48;59.45;102660.53;5078277;28;20037;-81
2023/04/19 07:54:15;;;;;;;19.10;10.57;;;;;;;18.60;59.30;102664.47;5079245;28;20043;-81
2023/04/19 07:56:40;;;;;;;16.53;9.20;;;;;;;18.97;58.97;102656.31;5079846;28;20437;-80
2023/04/19 07:59:06;;;;;;;18.30;8.82;;;;;;;19.39;55.90;102665.53;5082026;28;20286;-81
2023/04/19 08:01:31;;;;;;;15.15;9.48;;;;;;;18.58;56.24;102657.50;5075649;28;20043;-80
2023/04/19 08:03:56;;;;;;;15.52;9.45;;;;;;;18.46;57.39;102670.78;5063589;28;20047;-79
2023/04/19 08:06:22;;;;;;;18.13;10.23;;;;;;;18.47;56.29;102674.38;5079079;28;20040;-81
2023/04/19 08:08:47;;;;;;;16.38;8.98;;;;;;;18.07;56.84;102669.22;5065506;28;20059;-82
2023/04/19 08:11:13;;;;;;;18.50;9.38;;;;;;;18.08;56.21;102670.03;5079221;28;20043;-81
2023/04/19 08:13:38;;;;;;;15.23;8.43;;;;;;;18.45;55.90;102671.81;5079226;28;20024;-79
2023/04/19 08:16:04;;;;;;;17.60;8.60;;;;;;;18.59;53.86;102668.25;5077161;28;20537;-80
2023/04/19 08:18:30;;;;;;;16.58;8.07;;;;;;;18.73;53.21;102662.94;5082892;28;20063;-82
2023/04/19 08:20:55;;;;;;;14.27;8.02;;;;;;;18.86;54.21;102663.13;5078733;28;20028;-80
2023/04/19 08:23:21;;;;;;;15.50;7.55;;;;;;;19.00;52.54;102658.66;5079107;28;20035;-81
2023/04/19 08:25:46;;;;;;;11.10;7.68;;;;;;;19.14;51.33;102665.94;5078331;28;20021;-79
2023/04/19 08:28:12;;;;;;;19.08;8.00;;;;;;;18.83;51.40;102653.44;5073327;28;20027;-82
2023/04/19 08:30:37;;;;;;;12.90;7.50;;;;;;;18.53;51.79;102655.34;5078831;28;20512;-82
2023/04/19 08:33:02;;;;;;;13.40;7.25;;;;;;;18.57;52.43;102651.22;5079056;28;20175;-81
2023/04/19 08:35:28;;;;;;;16.52;7.80;;;;;;;18.52;51.72;102659.13;5077331;28;20063;-82
2023/04/19 08:37:53;;;;;;;16.80;7.38;;;;;;;18.93;51.47;102664.06;5063101;28;20028;-79
2023/04/19 08:40:18;;;;;;;15.57;7.10;;;;;;;19.55;50.77;102656.22;5076704;28;20066;-79
2023/04/19 08:42:44;;;;;;;12.00;7.20;;;;;;;19.68;50.35;102656.38;5069185;28;20035;-79
2023/04/19 08:45:12;;;;;;;14.82;6.53;;;;;;;19.79;49.04;102653.06;5059826;28;20013;-81
2023/04/19 08:47:38;;;;;;;15.02;7.03;;;;;;;19.51;48.06;102653.91;5057991;28;20021;-80
2023/04/19 08:50:05;;;;;;;13.77;7.50;;;;;;;19.35;47.48;102653.31;5065796;28;20104;-81
2023/04/19 08:52:32;;;;;;;11.63;6.70;;;;;;;18.93;47.34;102653.13;5051853;28;20052;-82
2023/04/19 08:55:00;;;;;;;12.25;6.20;;;;;;;18.85;48.13;102655.97;5076474;28;20028;-81
2023/04/19 08:57:26;;;;;;;13.23;6.93;;;;;;;19.00;47.14;102662.22;5077553;28;20024;-79
2023/04/19 08:59:54;;;;;;;10.13;6.30;;;;;;;19.44;48.22;102652.16;5069747;28;20032;-83
2023/04/19 09:02:20;;;;;;;11.23;6.10;;;;;;;19.41;47.48;102655.28;5065257;28;20032;-81
2023/04/19 09:04:46;;;;;;;13.82;6.68;;;;;;;19.21;46.85;102653.19;5064779;28;20048;-81
2023/04/19 09:07:25;;;;;;;11.70;5.85;;;;;;;19.39;45.93;102654.63;5069336;28;20032;-84
2023/04/19 09:10:13;;;;;;;10.45;5.75;;;;;;;19.42;45.80;102660.53;5078615;28;20036;-81
2023/04/19 09:12:39;;;;;;;11.13;5.65;;;;;;;19.34;46.79;102649.75;5058625;28;20029;-81
2023/04/19 09:15:07;;;;;;;9.15;5.82;;;;;;;19.08;46.72;102651.16;5066344;28;20038;-80
2023/04/19 09:17:33;;;;;;;9.90;5.80;;;;;;;19.46;47.67;102652.81;5076596;28;20036;-80
2023/04/19 09:19:59;;;;;;;9.20;6.03;;;;;;;19.98;45.38;102656.97;5078678;28;20037;-83
2023/04/19 09:22:25;;;;;;;8.98;5.13;;;;;;;19.69;43.08;102650.69;5077623;28;20456;-81
2023/04/19 09:24:51;;;;;;;8.18;4.35;;;;;;;19.48;41.43;102646.09;5072484;28;20025;-80
2023/04/19 09:27:24;;;;;;;12.02;4.45;;;;;;;19.84;42.12;102650.59;5067665;28;20029;-80
2023/04/19 09:29:54;;;;;;;7.03;4.10;;;;;;;19.99;41.63;102658.69;5076180;28;20039;-81
2023/04/19 09:32:20;;;;;;;7.78;4.22;;;;;;;19.82;40.05;102638.19;5084482;28;20025;-80
2023/04/19 09:34:56;;;;;;;7.85;4.18;;;;;;;19.30;40.11;102649.31;5086256;28;20436;-79
2023/04/19 09:37:22;;;;;;;4.05;3.53;;;;;;;19.18;38.85;102639.94;5080476;28;20021;-82
2023/04/19 09:39:50;;;;;;;5.88;3.88;;;;;;;19.31;38.87;102652.88;5075837;28;20024;-81
2023/04/19 09:42:17;;;;;;;7.68;4.10;;;;;;;19.90;38.26;102638.84;5082242;28;20033;-81
2023/04/19 09:44:54;;;;;;;11.87;3.60;;;;;;;19.50;36.15;102633.06;5077304;28;20029;-81
2023/04/19 09:47:22;;;;;;;10.05;3.65;;;;;;;19.30;36.94;102638.38;5066998;28;20025;-81
2023/04/19 09:50:04;;;;;;;12.00;3.72;;;;;;;19.50;37.07;102632.25;5070885;28;20033;-81
2023/04/19 09:52:31;;;;;;;19.38;4.75;;;;;;;20.20;35.99;102622.22;5071831;28;20096;-82
2023/04/19 09:54:57;;;;;;;7.65;3.20;;;;;;;20.20;34.60;102633.16;5062534;28;20021;-80
2023/04/19 09:57:23;;;;;;;7.10;3.53;;;;;;;20.05;34.89;102629.72;5079983;28;20475;-81
2023/04/19 09:59:48;;;;;;;7.88;3.10;;;;;;;19.78;34.55;102628.72;5082165;28;20033;-80
2023/04/19 10:02:14;;;;;;;4.68;2.78;;;;;;;19.37;32.84;102638.44;5082089;28;20026;-82
2023/04/19 10:04:41;;;;;;;7.18;2.80;;;;;;;19.11;33.03;102632.72;5082123;28;20032;-83
2023/04/19 10:07:09;;;;;;;11.23;2.40;;;;;;;19.06;32.75;102628.72;5078918;28;20093;-83
2023/04/19 10:09:34;;;;;;;3.80;2.70;;;;;;;18.88;32.18;102613.81;5067808;28;20036;-82
2023/04/19 10:12:00;;;;;;;8.50;2.25;;;;;;;18.77;32.72;102593.34;5063530;28;20033;-84
2023/04/19 10:14:27;;;;;;;7.03;2.60;;;;;;;18.81;33.82;102616.47;5071210;28;20119;-81
2023/04/19 10:16:55;;;;;;;8.38;3.00;;;;;;;19.27;32.36;102618.81;5081347;28;20021;-82
2023/04/19 10:19:21;;;;;;;5.13;2.60;;;;;;;19.29;32.08;102614.84;5083350;28;20029;-81
2023/04/19 10:21:48;;;;;;;4.00;1.95;;;;;;;19.13;32.59;102617.84;5082017;28;20035;-81
2023/04/19 10:24:15;;;;;;;5.25;2.30;;;;;;;19.26;33.02;102630.78;5067800;28;20031;-83
2023/04/19 10:27:11;;;;;;;2.63;2.20;;;;;;;19.56;31.72;102611.47;5088052;28;20024;-85
2023/04/19 10:29:59;;;;;;;7.68;2.35;;;;;;;19.74;32.33;102622.78;5085273;28;20032;-82
2023/04/19 10:32:30;;;;;;;4.78;2.05;;;;;;;19.08;32.10;102618.44;5080280;28;20016;-81
2023/04/19 10:35:03;;;;;;;7.80;2.30;;;;;;;18.84;32.11;102618.81;5069256;28;20098;-81
2023/04/19 10:37:30;;;;;;;3.75;1.98;;;;;;;18.64;31.50;102608.50;5064737;28;20048;-81
2023/04/19 10:39:55;;;;;;;5.00;1.92;;;;;;;18.96;32.87;102603.63;5068087;28;20025;-81
2023/04/19 10:42:20;;;;;;;7.93;2.22;;;;;;;19.25;31.88;102608.09;5070829;28;20033;-81
2023/04/19 10:45:23;;;;;;;5.40;1.55;;;;;;;19.34;30.37;102608.78;5083590;28;20031;-82
2023/04/19 10:47:50;;;;;;;5.07;1.90;;;;;;;19.11;30.63;102617.19;5078635;28;20051;-80
2023/04/19 10:50:16;;;;;;;2.83;1.70;;;;;;;18.84;31.51;102600.56;5083110;28;20036;-83
2023/04/19 10:52:44;;;;;;;2.60;1.60;;;;;;;18.62;32.75;102599.69;5084125;28;20052;-83
2023/04/19 10:55:14;;;;;;;6.35;1.70;;;;;;;19.25;33.44;102599.06;5075448;28;20084;-81
2023/04/19 10:58:05;;;;;;;2.80;1.92;;;;;;;19.44;31.02;102590.19;5074779;28;20050;-82
2023/04/19 11:00:32;;;;;;;3.08;1.70;;;;;;;18.89;31.28;102597.25;5068059;28;20035;-80
2023/04/19 11:02:59;;;;;;;2.05;1.58;;;;;;;18.57;32.65;102593.13;5078589;28;20085;-79
2023/04/19 11:05:24;;;;;;;7.40;1.98;;;;;;;19.01;32.76;102598.44;5082962;28;20029;-81
2023/04/19 11:07:50;;;;;;;5.03;2.08;;;;;;;19.19;31.64;102591.66;5075874;28;20044;-83